createdAt,value
2022-08-16T00:00:03.653Z,20.90
2022-08-16T00:02:11.957Z,20.80
2022-08-16T00:04:16.789Z,20.80
2022-08-16T00:06:20.837Z,20.80
2022-08-16T00:08:36.253Z,20.80
2022-08-16T00:10:39.964Z,20.70
2022-08-16T00:12:44.274Z,20.70
2022-08-16T00:14:47.045Z,20.70
2022-08-16T00:17:06.334Z,20.70
2022-08-16T00:19:15.893Z,20.70
2022-08-16T00:21:18.686Z,20.70
2022-08-16T00:23:24.567Z,20.70
2022-08-16T00:26:35.391Z,20.70
2022-08-16T00:28:00.430Z,20.70
2022-08-16T00:30:09.250Z,20.70
2022-08-16T00:32:22.479Z,20.70
2022-08-16T00:34:43.973Z,20.60
2022-08-16T00:36:49.366Z,20.70
2022-08-16T00:38:58.794Z,20.60
2022-08-16T00:41:06.090Z,20.60
2022-08-16T00:43:19.071Z,20.50
2022-08-16T00:45:57.999Z,20.50
2022-08-16T00:48:30.651Z,20.50
2022-08-16T00:50:36.573Z,20.40
2022-08-16T00:52:50.139Z,20.50
2022-08-16T00:54:53.470Z,20.40
2022-08-16T00:57:00.346Z,20.40
2022-08-16T00:59:05.711Z,20.40
2022-08-16T01:01:10.375Z,20.40
2022-08-16T01:03:17.408Z,20.40
2022-08-16T01:05:33.917Z,20.30
2022-08-16T01:07:50.427Z,20.30
2022-08-16T01:09:54.910Z,20.30
2022-08-16T01:11:57.483Z,20.20
2022-08-16T01:14:26.717Z,20.20
2022-08-16T01:16:35.113Z,20.20
2022-08-16T01:18:55.471Z,20.20
2022-08-16T01:21:33.707Z,20.10
2022-08-16T01:24:52.831Z,20.10
2022-08-16T01:26:44.995Z,20.10
2022-08-16T01:28:48.869Z,20.00
2022-08-16T01:30:57.825Z,20.00
2022-08-16T01:33:15.105Z,20.00
2022-08-16T01:35:30.721Z,20.00
2022-08-16T01:37:43.161Z,20.00
2022-08-16T01:39:47.316Z,20.00
2022-08-16T01:41:50.224Z,20.00
2022-08-16T01:43:54.657Z,20.00
2022-08-16T01:46:37.816Z,20.10
2022-08-16T01:48:31.896Z,20.00
2022-08-16T01:50:41.731Z,20.00
2022-08-16T01:52:47.523Z,20.00
2022-08-16T01:54:57.001Z,20.00
2022-08-16T01:57:02.346Z,20.00
2022-08-16T01:59:15.704Z,20.00
2022-08-16T02:01:28.124Z,20.10
2022-08-16T02:03:31.162Z,20.10
2022-08-16T02:05:34.863Z,20.10
2022-08-16T02:07:44.164Z,20.10
2022-08-16T02:09:57.191Z,20.10
2022-08-16T02:12:49.541Z,20.00
2022-08-16T02:14:32.612Z,20.00
2022-08-16T02:16:35.996Z,20.00
2022-08-16T02:18:38.962Z,20.00
2022-08-16T02:20:48.166Z,19.90
2022-08-16T02:22:51.372Z,19.90
2022-08-16T02:24:57.843Z,19.90
2022-08-16T02:27:00.577Z,20.00
2022-08-16T02:29:03.990Z,20.00
2022-08-16T02:31:11.262Z,20.00
2022-08-16T02:33:15.426Z,19.90
2022-08-16T02:35:23.190Z,19.90
2022-08-16T02:37:51.532Z,19.90
2022-08-16T02:39:54.062Z,19.80
2022-08-16T02:41:57.136Z,19.80
2022-08-16T02:44:00.518Z,19.80
2022-08-16T02:46:07.340Z,19.80
2022-08-16T02:48:29.370Z,19.80
2022-08-16T02:51:04.230Z,19.80
2022-08-16T02:52:57.420Z,19.80
2022-08-16T02:55:00.853Z,19.70
2022-08-16T02:57:04.552Z,19.70
2022-08-16T02:59:11.447Z,19.70
2022-08-16T03:01:25.271Z,19.60
2022-08-16T03:04:29.868Z,19.60
2022-08-16T03:06:03.267Z,19.60
2022-08-16T03:08:50.304Z,19.60
2022-08-16T03:10:53.250Z,19.50
2022-08-16T03:12:56.846Z,19.50
2022-08-16T03:15:06.265Z,19.50
2022-08-16T03:17:11.217Z,19.40
2022-08-16T03:19:15.516Z,19.40
2022-08-16T03:21:21.198Z,19.30
2022-08-16T03:23:27.618Z,19.20
2022-08-16T03:25:43.967Z,19.10
2022-08-16T03:27:48.265Z,19.00
2022-08-16T03:29:54.624Z,19.00
2022-08-16T03:32:01.505Z,18.90
2022-08-16T03:34:04.785Z,18.90
2022-08-16T03:36:29.711Z,18.80
2022-08-16T03:38:35.730Z,18.80
2022-08-16T03:40:43.434Z,18.90
2022-08-16T03:43:18.663Z,18.90
2022-08-16T03:45:10.001Z,18.90
2022-08-16T03:47:18.665Z,18.90
2022-08-16T03:49:23.662Z,19.00
2022-08-16T03:51:42.309Z,19.00
2022-08-16T03:54:01.026Z,19.00
2022-08-16T03:56:07.910Z,18.90
2022-08-16T03:58:10.794Z,18.90
2022-08-16T04:00:40.253Z,18.90
2022-08-16T04:02:48.574Z,18.90
2022-08-16T04:04:56.556Z,18.90
2022-08-16T04:07:02.672Z,18.90
2022-08-16T04:09:06.296Z,18.90
2022-08-16T04:11:16.405Z,18.90
2022-08-16T04:14:01.222Z,18.90
2022-08-16T04:15:44.649Z,18.90
2022-08-16T04:17:58.258Z,19.00
2022-08-16T04:20:01.498Z,18.90
2022-08-16T04:22:08.483Z,18.90
2022-08-16T04:24:20.005Z,18.90
2022-08-16T04:26:22.768Z,18.90
2022-08-16T04:28:51.653Z,18.90
2022-08-16T04:30:50.548Z,18.90
2022-08-16T04:32:55.619Z,18.90
2022-08-16T04:35:03.435Z,18.90
2022-08-16T04:37:09.894Z,19.00
2022-08-16T04:39:17.428Z,19.10
2022-08-16T04:41:32.688Z,19.10
2022-08-16T04:43:39.070Z,19.10
2022-08-16T04:45:48.032Z,19.20
2022-08-16T04:48:04.568Z,19.20
2022-08-16T04:50:19.429Z,19.30
2022-08-16T04:52:48.676Z,19.40
2022-08-16T04:54:52.868Z,19.50
2022-08-16T04:56:55.770Z,19.50
2022-08-16T04:59:00.773Z,19.60
2022-08-16T05:01:07.843Z,19.60
2022-08-16T05:03:12.707Z,19.70
2022-08-16T05:05:22.246Z,19.80
2022-08-16T05:07:25.444Z,19.80
2022-08-16T05:09:38.381Z,19.90
2022-08-16T05:12:10.999Z,19.90
2022-08-16T05:14:20.286Z,19.90
2022-08-16T05:16:39.236Z,20.00
2022-08-16T05:19:02.325Z,20.00
2022-08-16T05:21:12.498Z,20.00
2022-08-16T05:23:18.855Z,20.10
2022-08-16T05:25:23.984Z,20.10
2022-08-16T05:27:44.179Z,20.20
2022-08-16T05:29:59.284Z,20.20
2022-08-16T05:32:32.441Z,20.30
2022-08-16T05:34:31.266Z,20.40
2022-08-16T05:36:37.046Z,20.50
2022-08-16T05:38:41.366Z,20.50
2022-08-16T05:41:00.056Z,20.60
2022-08-16T05:43:12.163Z,20.60
2022-08-16T05:45:21.915Z,20.70
2022-08-16T05:47:30.213Z,20.80
2022-08-16T05:49:40.294Z,20.90
2022-08-16T05:51:47.334Z,21.00
2022-08-16T05:53:53.551Z,21.00
2022-08-16T05:55:57.930Z,21.10
2022-08-16T05:58:02.168Z,21.20
2022-08-16T06:00:10.303Z,21.30
2022-08-16T06:02:17.092Z,21.40
2022-08-16T06:04:34.904Z,21.50
2022-08-16T06:06:43.509Z,21.60
2022-08-16T06:09:00.720Z,21.70
2022-08-16T06:11:10.124Z,21.80
2022-08-16T06:13:13.506Z,21.80
2022-08-16T06:15:21.379Z,21.90
2022-08-16T06:17:24.776Z,22.00
2022-08-16T06:19:48.402Z,22.10
2022-08-16T06:21:55.221Z,22.30
2022-08-16T06:24:01.235Z,22.30
2022-08-16T06:26:07.997Z,22.50
2022-08-16T06:28:17.242Z,22.60
2022-08-16T06:30:43.383Z,22.70
2022-08-16T06:32:48.558Z,22.80
2022-08-16T06:34:56.841Z,22.80
2022-08-16T06:37:07.515Z,23.00
2022-08-16T06:39:12.471Z,23.00
2022-08-16T06:41:27.528Z,23.20
2022-08-16T06:43:32.394Z,23.20
2022-08-16T06:45:43.378Z,23.30
2022-08-16T06:47:54.278Z,23.40
2022-08-16T06:50:02.918Z,23.60
2022-08-16T06:52:57.210Z,23.60
2022-08-16T06:54:49.821Z,23.70
2022-08-16T06:56:54.202Z,23.80
2022-08-16T06:58:58.495Z,23.90
2022-08-16T07:01:09.866Z,24.00
2022-08-16T07:03:27.420Z,24.10
2022-08-16T07:05:57.550Z,24.20
2022-08-16T07:08:04.928Z,24.30
2022-08-16T07:10:09.624Z,24.40
2022-08-16T07:12:15.291Z,24.40
2022-08-16T07:14:24.703Z,24.50
2022-08-16T07:16:29.131Z,24.50
2022-08-16T07:18:35.280Z,24.50
2022-08-16T07:21:23.195Z,24.60
2022-08-16T07:23:37.381Z,24.70
2022-08-16T07:25:44.379Z,24.80
2022-08-16T07:27:47.853Z,24.90
2022-08-16T07:29:55.568Z,25.00
2022-08-16T07:32:01.044Z,25.10
2022-08-16T07:34:04.177Z,25.20
2022-08-16T07:36:22.012Z,25.30
2022-08-16T07:38:33.723Z,25.40
2022-08-16T07:41:00.351Z,25.40
2022-08-16T07:43:05.801Z,25.60
2022-08-16T07:45:11.777Z,25.70
2022-08-16T07:47:20.066Z,25.80
2022-08-16T07:49:32.410Z,25.90
2022-08-16T07:51:38.812Z,25.90
2022-08-16T07:53:44.645Z,26.10
2022-08-16T07:55:49.849Z,26.20
2022-08-16T07:58:03.309Z,26.20
2022-08-16T08:00:18.291Z,26.30
2022-08-16T08:02:27.287Z,26.40
2022-08-16T08:04:35.174Z,26.40
2022-08-16T08:06:37.878Z,26.50
2022-08-16T08:08:52.371Z,26.60
2022-08-16T08:10:56.863Z,26.60
2022-08-16T08:13:04.828Z,26.70
2022-08-16T08:15:11.940Z,26.90
2022-08-16T08:17:17.844Z,26.90
2022-08-16T08:19:21.387Z,27.00
2022-08-16T08:21:26.232Z,27.10
2022-08-16T08:23:31.330Z,27.20
2022-08-16T08:25:53.963Z,27.30
2022-08-16T08:28:00.483Z,27.40
2022-08-16T08:30:50.029Z,27.40
2022-08-16T08:32:58.572Z,27.50
2022-08-16T08:34:52.822Z,27.50
2022-08-16T08:36:56.909Z,27.60
2022-08-16T08:39:21.085Z,27.80
2022-08-16T08:41:30.455Z,27.90
2022-08-16T08:43:41.325Z,28.00
2022-08-16T08:45:57.642Z,28.10
2022-08-16T08:48:01.493Z,28.20
2022-08-16T08:50:08.980Z,28.30
2022-08-16T08:52:12.334Z,28.40
2022-08-16T08:54:36.586Z,28.50
2022-08-16T08:56:45.464Z,28.50
2022-08-16T08:59:04.675Z,28.60
2022-08-16T09:01:31.285Z,28.60
2022-08-16T09:03:37.922Z,28.70
2022-08-16T09:05:41.068Z,28.80
2022-08-16T09:08:01.580Z,28.80
2022-08-16T09:10:20.455Z,28.90
2022-08-16T09:12:30.200Z,28.90
2022-08-16T09:14:50.791Z,28.90
2022-08-16T09:17:03.135Z,29.00
2022-08-16T09:21:09.790Z,29.10
2022-08-16T09:23:13.801Z,29.20
2022-08-16T09:25:26.316Z,29.20
2022-08-16T09:27:56.578Z,29.20
2022-08-16T09:30:00.732Z,29.10
2022-08-16T09:32:25.602Z,29.20
2022-08-16T09:34:33.318Z,29.20
2022-08-16T09:36:36.259Z,29.10
2022-08-16T09:38:40.833Z,29.10
2022-08-16T09:40:49.614Z,29.10
2022-08-16T09:43:05.944Z,29.20
2022-08-16T09:45:17.134Z,29.20
2022-08-16T09:47:23.399Z,29.10
2022-08-16T09:49:26.445Z,29.00
2022-08-16T09:51:41.233Z,28.80
2022-08-16T09:53:44.004Z,28.70
2022-08-16T09:55:57.672Z,28.60
2022-08-16T09:58:01.382Z,28.60
2022-08-16T10:00:44.463Z,28.60
2022-08-16T10:02:34.699Z,28.80
2022-08-16T10:04:54.526Z,28.80
2022-08-16T10:09:10.716Z,29.00
2022-08-16T10:11:33.424Z,28.90
2022-08-16T10:13:52.766Z,28.90
2022-08-16T10:15:59.677Z,29.10
2022-08-16T10:19:00.986Z,29.20
2022-08-16T10:20:42.342Z,29.40
2022-08-16T10:22:47.226Z,29.60
2022-08-16T10:24:56.074Z,29.80
2022-08-16T10:27:26.438Z,29.80
2022-08-16T10:29:25.298Z,29.90
2022-08-16T10:31:53.575Z,30.10
2022-08-16T10:33:58.710Z,30.20
2022-08-16T10:36:06.318Z,30.20
2022-08-16T10:38:27.095Z,30.20
2022-08-16T10:40:32.266Z,30.30
2022-08-16T10:42:36.633Z,30.40
2022-08-16T10:44:39.262Z,30.60
2022-08-16T10:46:42.973Z,30.80
2022-08-16T10:48:47.718Z,31.00
2022-08-16T10:50:51.248Z,31.10
2022-08-16T10:52:58.701Z,31.10
2022-08-16T10:57:25.381Z,31.20
2022-08-16T10:59:45.149Z,31.10
2022-08-16T11:06:42.261Z,31.10
2022-08-16T11:11:27.286Z,30.70
2022-08-16T11:15:55.442Z,30.50
2022-08-16T11:20:41.502Z,30.20
2022-08-16T11:22:48.977Z,30.30
2022-08-16T11:25:11.878Z,30.30
2022-08-16T11:27:20.067Z,30.50
2022-08-16T11:29:26.806Z,30.70
2022-08-16T11:31:29.578Z,30.90
2022-08-16T11:38:46.897Z,31.50
2022-08-16T11:40:58.562Z,31.70
2022-08-16T11:43:04.053Z,31.90
2022-08-16T11:45:07.828Z,32.00
2022-08-16T11:47:10.500Z,32.10
2022-08-16T11:49:14.288Z,32.10
2022-08-16T11:51:17.587Z,32.10
2022-08-16T11:53:23.806Z,32.00
2022-08-16T11:55:26.852Z,31.80
2022-08-16T11:57:31.205Z,31.70
2022-08-16T11:59:35.844Z,31.70
2022-08-16T12:01:55.018Z,31.60
2022-08-16T12:04:01.870Z,31.70
2022-08-16T12:06:25.550Z,31.80
2022-08-16T12:08:33.398Z,31.90
2022-08-16T12:10:39.075Z,31.90
2022-08-16T12:12:43.817Z,31.90
2022-08-16T12:14:52.130Z,32.00
2022-08-16T12:17:05.029Z,32.00
2022-08-16T12:19:10.656Z,32.10
2022-08-16T12:21:18.406Z,32.00
2022-08-16T12:23:23.870Z,31.90
2022-08-16T12:25:30.725Z,31.80
2022-08-16T12:27:35.539Z,31.80
2022-08-16T12:29:42.779Z,31.80
2022-08-16T12:31:59.240Z,31.80
2022-08-16T12:34:10.735Z,31.90
2022-08-16T12:36:30.334Z,32.00
2022-08-16T12:38:40.811Z,32.10
2022-08-16T12:40:53.006Z,32.10
2022-08-16T12:43:01.115Z,32.10
2022-08-16T12:45:12.133Z,32.10
2022-08-16T12:47:33.351Z,32.10
2022-08-16T12:49:42.129Z,32.20
2022-08-16T12:51:58.677Z,32.30
2022-08-16T12:54:07.610Z,32.40
2022-08-16T12:56:12.730Z,32.50
2022-08-16T12:58:48.710Z,32.60
2022-08-16T13:00:40.207Z,32.60
2022-08-16T13:02:47.592Z,32.70
2022-08-16T13:04:50.508Z,32.80
2022-08-16T13:06:53.361Z,32.80
2022-08-16T13:09:02.345Z,32.90
2022-08-16T13:11:13.851Z,32.90
2022-08-16T13:13:25.004Z,33.00
2022-08-16T13:15:29.313Z,33.10
2022-08-16T13:17:33.003Z,33.00
2022-08-16T13:20:05.929Z,32.90
2022-08-16T13:21:59.869Z,32.80
2022-08-16T13:24:04.065Z,32.60
2022-08-16T13:26:08.333Z,32.50
2022-08-16T13:28:16.910Z,32.30
2022-08-16T13:30:35.561Z,32.20
2022-08-16T13:32:40.959Z,32.00
2022-08-16T13:34:43.667Z,31.90
2022-08-16T13:36:49.528Z,31.90
2022-08-16T13:38:56.323Z,31.90
2022-08-16T13:41:02.535Z,31.70
2022-08-16T13:43:05.165Z,31.60
2022-08-16T13:45:10.189Z,31.50
2022-08-16T13:47:19.758Z,31.40
2022-08-16T13:49:23.355Z,31.40
2022-08-16T13:51:30.818Z,31.20
2022-08-16T13:53:33.464Z,31.00
2022-08-16T13:55:36.054Z,30.80
2022-08-16T13:58:35.205Z,30.80
2022-08-16T14:00:05.505Z,30.80
2022-08-16T14:02:15.554Z,30.80
2022-08-16T14:04:18.969Z,30.80
2022-08-16T14:06:28.908Z,30.70
2022-08-16T14:08:31.503Z,30.70
2022-08-16T14:10:34.164Z,30.70
2022-08-16T14:12:37.711Z,30.70
2022-08-16T14:14:41.369Z,30.70
2022-08-16T14:16:45.170Z,30.70
2022-08-16T14:18:47.776Z,30.80
2022-08-16T14:20:51.897Z,30.70
2022-08-16T14:22:55.442Z,30.80
2022-08-16T14:25:00.129Z,30.80
2022-08-16T14:27:04.363Z,30.80
2022-08-16T14:29:07.218Z,30.80
2022-08-16T14:31:09.990Z,30.70
2022-08-16T14:33:14.199Z,30.60
2022-08-16T14:35:36.781Z,30.40
2022-08-16T14:37:52.560Z,30.40
2022-08-16T14:40:01.087Z,30.40
2022-08-16T14:42:13.606Z,30.30
2022-08-16T14:44:16.668Z,30.30
2022-08-16T14:46:20.455Z,30.30
2022-08-16T14:48:26.253Z,30.30
2022-08-16T14:50:29.386Z,30.30
2022-08-16T14:54:55.450Z,30.30
2022-08-16T14:56:58.582Z,30.40
2022-08-16T14:59:01.380Z,30.40
2022-08-16T15:01:09.983Z,30.40
2022-08-16T15:03:13.121Z,30.40
2022-08-16T15:05:17.087Z,30.40
2022-08-16T15:07:22.109Z,30.50
2022-08-16T15:09:25.683Z,30.50
2022-08-16T15:11:28.302Z,30.60
2022-08-16T15:13:36.037Z,30.70
2022-08-16T15:15:39.415Z,30.70
2022-08-16T15:17:53.722Z,30.80
2022-08-16T15:19:57.366Z,31.00
2022-08-16T15:22:02.134Z,30.90
2022-08-16T15:24:07.498Z,31.00
2022-08-16T15:26:34.663Z,30.90
2022-08-16T15:28:44.570Z,30.90
2022-08-16T15:30:59.446Z,30.70
2022-08-16T15:33:15.417Z,30.50
2022-08-16T15:35:18.488Z,30.30
2022-08-16T15:37:21.132Z,30.00
2022-08-16T15:39:37.137Z,29.80
2022-08-16T15:41:43.507Z,29.60
2022-08-16T15:43:46.431Z,29.40
2022-08-16T15:46:07.826Z,29.40
2022-08-16T15:48:13.681Z,29.20
2022-08-16T15:50:19.851Z,29.20
2022-08-16T15:52:30.729Z,29.20
2022-08-16T15:54:33.579Z,29.20
2022-08-16T15:56:36.299Z,29.30
2022-08-16T15:58:39.100Z,29.20
2022-08-16T16:00:43.533Z,29.20
2022-08-16T16:02:47.086Z,29.30
2022-08-16T16:04:52.265Z,29.30
2022-08-16T16:06:57.297Z,29.30
2022-08-16T16:09:02.402Z,29.40
2022-08-16T16:11:07.199Z,29.40
2022-08-16T16:13:11.885Z,29.50
2022-08-16T16:15:18.839Z,29.50
2022-08-16T16:17:21.469Z,29.60
2022-08-16T16:19:24.007Z,29.70
2022-08-16T16:21:30.062Z,29.80
2022-08-16T16:23:44.820Z,29.80
2022-08-16T16:26:03.511Z,29.90
2022-08-16T16:29:05.313Z,29.90
2022-08-16T16:30:45.186Z,30.00
2022-08-16T16:32:51.185Z,30.00
2022-08-16T16:34:59.223Z,30.10
2022-08-16T16:37:04.112Z,30.10
2022-08-16T16:39:11.281Z,30.20
2022-08-16T16:41:22.739Z,30.20
2022-08-16T16:43:31.351Z,30.10
2022-08-16T16:45:40.006Z,30.10
2022-08-16T16:47:42.793Z,30.00
2022-08-16T16:49:50.534Z,30.00
2022-08-16T16:52:06.652Z,29.90
2022-08-16T16:54:13.237Z,29.80
2022-08-16T16:56:27.498Z,29.70
2022-08-16T16:58:54.202Z,29.60
2022-08-16T17:00:58.421Z,29.50
2022-08-16T17:03:02.927Z,29.50
2022-08-16T17:05:08.509Z,29.40
2022-08-16T17:07:14.660Z,29.40
2022-08-16T17:09:18.867Z,29.30
2022-08-16T17:11:25.749Z,29.30
2022-08-16T17:13:33.024Z,29.20
2022-08-16T17:15:40.967Z,29.10
2022-08-16T17:17:59.962Z,29.10
2022-08-16T17:20:12.785Z,29.00
2022-08-16T17:22:20.674Z,28.90
2022-08-16T17:26:49.182Z,28.80
2022-08-16T17:29:11.192Z,28.70
2022-08-16T17:31:16.364Z,28.70
2022-08-16T17:33:21.857Z,28.60
2022-08-16T17:35:38.252Z,28.50
2022-08-16T17:37:51.001Z,28.50
2022-08-16T17:39:28.503Z,28.90
2022-08-16T17:40:00.319Z,28.40
2022-08-16T17:42:15.947Z,28.40
2022-08-16T17:44:19.885Z,28.30
2022-08-16T17:46:51.800Z,28.30
2022-08-16T17:48:45.330Z,28.20
2022-08-16T17:50:48.234Z,28.10
2022-08-16T17:52:58.461Z,28.10
2022-08-16T17:55:12.419Z,28.00
2022-08-16T17:57:16.962Z,28.00
2022-08-16T17:59:20.809Z,27.90
2022-08-16T18:01:27.086Z,27.90
2022-08-16T18:04:02.842Z,27.90
2022-08-16T18:06:11.048Z,27.70
2022-08-16T18:08:16.295Z,27.70
2022-08-16T18:10:32.658Z,27.60
2022-08-16T18:12:54.978Z,27.60
2022-08-16T18:15:00.865Z,27.50
2022-08-16T18:17:08.784Z,27.50
2022-08-16T18:19:14.689Z,27.50
2022-08-16T18:21:36.626Z,27.40
2022-08-16T18:23:39.847Z,27.30
2022-08-16T18:25:53.053Z,27.30
2022-08-16T18:27:57.639Z,27.10
2022-08-16T18:30:05.673Z,27.10
2022-08-16T18:32:09.203Z,27.00
2022-08-16T18:34:11.934Z,26.90
2022-08-16T18:36:21.182Z,26.90
2022-08-16T18:38:24.229Z,26.70
2022-08-16T18:40:27.147Z,26.60
2022-08-16T18:42:29.853Z,26.50
2022-08-16T18:44:38.082Z,26.50
2022-08-16T18:46:43.344Z,26.40
2022-08-16T18:48:45.949Z,26.40
2022-08-16T18:50:59.713Z,26.30
2022-08-16T18:53:16.457Z,26.30
2022-08-16T18:55:20.730Z,26.20
2022-08-16T18:57:26.061Z,26.20
2022-08-16T18:59:31.176Z,26.10
2022-08-16T19:01:34.827Z,26.00
2022-08-16T19:03:40.217Z,25.90
2022-08-16T19:06:05.565Z,25.80
2022-08-16T19:08:16.991Z,25.80
2022-08-16T19:10:21.128Z,25.70
2022-08-16T19:12:37.948Z,25.60
2022-08-16T19:14:58.301Z,25.60
2022-08-16T19:17:01.797Z,25.60
2022-08-16T19:19:08.607Z,25.50
2022-08-16T19:21:14.451Z,25.40
2022-08-16T19:23:22.970Z,25.40
2022-08-16T19:25:47.063Z,25.30
2022-08-16T19:27:58.160Z,25.20
2022-08-16T19:30:05.148Z,25.20
2022-08-16T19:32:27.695Z,25.10
2022-08-16T19:34:30.922Z,25.00
2022-08-16T19:36:38.029Z,25.00
2022-08-16T19:38:47.344Z,24.90
2022-08-16T19:40:51.820Z,24.90
2022-08-16T19:42:56.187Z,24.80
2022-08-16T19:45:16.953Z,24.70
2022-08-16T19:47:20.587Z,24.70
2022-08-16T19:49:24.651Z,24.60
2022-08-16T19:51:31.988Z,24.50
2022-08-16T19:53:34.848Z,24.50
2022-08-16T19:55:37.686Z,24.40
2022-08-16T19:57:43.983Z,24.40
2022-08-16T19:59:48.346Z,24.30
2022-08-16T20:01:52.842Z,24.20
2022-08-16T20:04:00.566Z,24.20
2022-08-16T20:06:04.212Z,24.10
2022-08-16T20:08:08.357Z,24.10
2022-08-16T20:10:14.399Z,24.10
2022-08-16T20:12:23.699Z,24.00
2022-08-16T20:14:27.315Z,24.00
2022-08-16T20:16:31.999Z,23.90
2022-08-16T20:18:41.148Z,23.90
2022-08-16T20:20:44.725Z,23.80
2022-08-16T20:22:54.265Z,23.70
2022-08-16T20:25:00.934Z,23.70
2022-08-16T20:27:07.368Z,23.60
2022-08-16T20:29:10.288Z,23.60
2022-08-16T20:31:14.903Z,23.50
2022-08-16T20:33:18.853Z,23.50
2022-08-16T20:35:25.414Z,23.40
2022-08-16T20:37:28.299Z,23.40
2022-08-16T20:39:32.727Z,23.40
2022-08-16T20:41:35.452Z,23.30
2022-08-16T20:43:51.083Z,23.30
2022-08-16T20:46:06.374Z,23.20
2022-08-16T20:48:11.289Z,23.20
2022-08-16T20:50:14.139Z,23.20
2022-08-16T20:52:19.808Z,23.10
2022-08-16T20:54:22.677Z,23.20
2022-08-16T20:56:25.255Z,23.20
2022-08-16T20:58:30.333Z,23.10
2022-08-16T21:00:36.035Z,23.10
2022-08-16T21:02:40.712Z,23.10
2022-08-16T21:04:45.477Z,23.10
2022-08-16T21:06:54.113Z,23.10
2022-08-16T21:09:03.615Z,23.00
2022-08-16T21:11:08.216Z,23.00
2022-08-16T21:13:12.631Z,23.00
2022-08-16T21:15:17.412Z,22.90
2022-08-16T21:17:20.141Z,22.90
2022-08-16T21:19:23.143Z,22.80
2022-08-16T21:21:31.831Z,22.80
2022-08-16T21:23:36.261Z,22.80
2022-08-16T21:25:58.405Z,22.80
2022-08-16T21:28:40.334Z,22.70
2022-08-16T21:30:33.962Z,22.70
2022-08-16T21:32:37.404Z,22.60
2022-08-16T21:34:45.905Z,22.60
2022-08-16T21:36:50.107Z,22.60
2022-08-16T21:38:53.150Z,22.50
2022-08-16T21:40:57.843Z,22.50
2022-08-16T21:43:11.994Z,22.50
2022-08-16T21:45:15.029Z,22.40
2022-08-16T21:47:17.892Z,22.40
2022-08-16T21:49:20.531Z,22.40
2022-08-16T21:51:23.145Z,22.30
2022-08-16T21:53:26.753Z,22.20
2022-08-16T21:55:29.323Z,22.10
2022-08-16T21:57:35.424Z,22.00
2022-08-16T21:59:39.027Z,22.00
2022-08-16T22:01:43.508Z,21.90
2022-08-16T22:03:46.204Z,21.90
2022-08-16T22:06:12.027Z,21.90
2022-08-16T22:08:14.021Z,21.80
2022-08-16T22:11:06.266Z,21.80
2022-08-16T22:12:49.014Z,21.80
2022-08-16T22:14:51.987Z,21.80
2022-08-16T22:16:55.876Z,21.70
2022-08-16T22:19:00.910Z,21.60
2022-08-16T22:21:03.544Z,21.60
2022-08-16T22:23:18.246Z,21.50
2022-08-16T22:25:23.198Z,21.40
2022-08-16T22:27:25.782Z,21.40
2022-08-16T22:29:28.388Z,21.40
2022-08-16T22:31:31.238Z,21.30
2022-08-16T22:33:33.814Z,21.20
2022-08-16T22:35:42.888Z,21.20
2022-08-16T22:38:46.181Z,21.30
2022-08-16T22:40:09.313Z,21.30
2022-08-16T22:42:12.510Z,21.30
2022-08-16T22:44:15.323Z,21.30
2022-08-16T22:46:19.596Z,21.30
2022-08-16T22:48:22.621Z,21.30
2022-08-16T22:50:25.518Z,21.30
2022-08-16T22:52:44.296Z,21.20
2022-08-16T22:54:50.650Z,21.20
2022-08-16T22:56:53.250Z,21.20
2022-08-16T22:58:56.356Z,21.10
2022-08-16T23:00:59.028Z,21.10
2022-08-16T23:03:13.961Z,21.20
2022-08-16T23:05:17.822Z,21.20
2022-08-16T23:07:20.498Z,21.10
2022-08-16T23:09:23.642Z,21.10
2022-08-16T23:11:26.569Z,21.10
2022-08-16T23:13:29.239Z,21.00
2022-08-16T23:15:40.033Z,21.00
2022-08-16T23:17:43.837Z,20.90
2022-08-16T23:19:47.295Z,20.80
2022-08-16T23:21:49.906Z,20.80
2022-08-16T23:23:52.542Z,20.80
2022-08-16T23:25:58.740Z,20.80
2022-08-16T23:28:01.547Z,20.80
2022-08-16T23:30:04.660Z,20.80
2022-08-16T23:32:12.069Z,20.80
2022-08-16T23:34:14.668Z,20.80
2022-08-16T23:36:17.297Z,20.70
2022-08-16T23:38:38.242Z,20.70
2022-08-16T23:40:42.500Z,20.70
2022-08-16T23:43:19.148Z,20.70
2022-08-16T23:45:26.883Z,20.70
2022-08-16T23:47:29.503Z,20.70
2022-08-16T23:49:59.360Z,20.70
2022-08-16T23:51:57.034Z,20.70
2022-08-16T23:54:00.643Z,20.70
2022-08-16T23:56:11.296Z,20.70
2022-08-16T23:58:16.893Z,20.70
